createdAt,value
2022-12-06T00:04:21.666Z,8.02
2022-12-06T00:09:52.981Z,6.53
2022-12-06T00:15:24.266Z,7.57
2022-12-06T00:20:55.599Z,7.25
2022-12-06T00:26:27.356Z,8.15
2022-12-06T00:31:58.817Z,6.85
2022-12-06T00:37:30.159Z,7.22
2022-12-06T00:43:01.276Z,6.72
2022-12-06T00:48:32.821Z,6.10
2022-12-06T00:54:04.564Z,6.82
2022-12-06T00:59:35.684Z,6.05
2022-12-06T01:05:07.437Z,6.78
2022-12-06T01:10:39.354Z,5.95
2022-12-06T01:16:16.398Z,4.90
2022-12-06T01:21:49.753Z,5.30
2022-12-06T01:27:21.145Z,6.32
2022-12-06T01:32:52.750Z,5.28
2022-12-06T01:38:23.840Z,6.15
2022-12-06T01:43:56.055Z,6.45
2022-12-06T01:49:33.063Z,4.57
2022-12-06T01:55:07.610Z,5.07
2022-12-06T02:00:38.987Z,5.35
2022-12-06T02:06:10.588Z,4.45
2022-12-06T02:11:43.812Z,3.47
2022-12-06T02:17:20.996Z,4.63
2022-12-06T02:23:25.321Z,5.65
2022-12-06T02:29:32.799Z,4.20
2022-12-06T02:35:14.597Z,5.13
2022-12-06T02:40:58.004Z,3.20
2022-12-06T02:46:33.307Z,3.72
2022-12-06T02:52:05.234Z,3.90
2022-12-06T02:57:42.210Z,3.72
2022-12-06T03:03:13.199Z,3.42
2022-12-06T03:08:59.168Z,2.47
2022-12-06T03:14:39.462Z,3.15
2022-12-06T03:20:21.481Z,2.70
2022-12-06T03:25:55.947Z,2.80
2022-12-06T03:31:29.414Z,2.85
2022-12-06T03:37:02.668Z,2.70
2022-12-06T03:42:34.469Z,2.92
2022-12-06T03:48:13.144Z,3.33
2022-12-06T03:53:50.314Z,2.85
2022-12-06T03:59:21.438Z,2.30
2022-12-06T04:04:52.573Z,2.88
2022-12-06T04:10:24.642Z,2.05
2022-12-06T04:15:57.431Z,2.35
2022-12-06T04:21:34.408Z,2.35
2022-12-06T04:27:24.559Z,2.17
2022-12-06T04:33:14.593Z,2.83
2022-12-06T04:38:46.112Z,2.40
2022-12-06T04:44:17.443Z,2.00
2022-12-06T04:49:48.826Z,2.15
2022-12-06T04:55:20.179Z,2.30
2022-12-06T05:00:52.624Z,2.55
2022-12-06T05:06:23.778Z,1.95
2022-12-06T05:11:55.089Z,1.85
2022-12-06T05:17:26.402Z,1.30
2022-12-06T05:22:57.417Z,1.33
2022-12-06T05:28:29.449Z,1.88
2022-12-06T05:34:00.664Z,3.45
2022-12-06T05:39:31.917Z,1.65
2022-12-06T05:45:04.086Z,0.80
2022-12-06T05:50:36.044Z,1.27
2022-12-06T05:56:09.504Z,1.77
2022-12-06T06:07:12.098Z,1.40
2022-12-06T06:12:44.981Z,1.80
2022-12-06T06:18:17.478Z,1.50
2022-12-06T06:23:48.881Z,1.55
2022-12-06T06:29:19.976Z,2.40
2022-12-06T06:34:50.897Z,1.80
2022-12-06T06:40:22.651Z,3.13
2022-12-06T06:46:07.176Z,1.60
2022-12-06T06:51:38.905Z,2.65
2022-12-06T06:57:15.842Z,3.08
2022-12-06T07:02:49.194Z,3.03
2022-12-06T07:08:20.974Z,3.28
2022-12-06T07:13:52.936Z,3.15
2022-12-06T07:19:24.354Z,3.65
2022-12-06T07:24:55.547Z,3.75
2022-12-06T07:30:30.430Z,4.68
2022-12-06T07:36:11.900Z,4.30
2022-12-06T07:42:02.761Z,4.40
2022-12-06T07:47:44.296Z,4.25
2022-12-06T07:53:15.387Z,3.80
2022-12-06T07:58:46.679Z,3.88
2022-12-06T08:04:18.697Z,3.63
2022-12-06T08:09:51.622Z,4.03
2022-12-06T08:15:22.752Z,4.10
2022-12-06T08:20:53.950Z,4.28
2022-12-06T08:26:26.014Z,2.97
2022-12-06T08:31:56.886Z,4.72
2022-12-06T08:37:28.033Z,5.13
2022-12-06T08:42:59.241Z,4.32
2022-12-06T08:48:30.376Z,5.18
2022-12-06T08:54:01.994Z,3.55
2022-12-06T08:59:33.109Z,3.45
2022-12-06T09:05:04.334Z,3.67
2022-12-06T09:10:35.801Z,3.67
2022-12-06T09:16:13.024Z,4.07
2022-12-06T09:21:44.638Z,3.95
2022-12-06T09:27:16.693Z,4.18
2022-12-06T09:32:48.618Z,5.78
2022-12-06T09:38:22.375Z,4.97
2022-12-06T09:43:59.405Z,4.90
2022-12-06T09:50:08.804Z,4.22
2022-12-06T09:55:55.083Z,4.40
2022-12-06T10:01:41.099Z,4.82
2022-12-06T10:07:24.883Z,5.97
2022-12-06T10:13:00.415Z,5.72
2022-12-06T10:18:56.088Z,5.07
2022-12-06T10:24:47.798Z,4.75
2022-12-06T10:30:19.768Z,4.68
2022-12-06T10:36:02.408Z,4.65
2022-12-06T10:41:49.214Z,4.50
2022-12-06T10:47:25.700Z,4.78
2022-12-06T10:53:17.342Z,4.55
2022-12-06T10:59:01.064Z,5.57
2022-12-06T11:04:34.816Z,5.20
2022-12-06T11:10:20.383Z,4.72
2022-12-06T11:16:12.889Z,6.07
2022-12-06T11:21:51.669Z,4.88
2022-12-06T11:27:32.403Z,5.57
2022-12-06T11:33:04.678Z,6.05
2022-12-06T11:38:37.847Z,5.75
2022-12-06T11:44:14.474Z,4.20
2022-12-06T11:49:46.461Z,4.60
2022-12-06T11:55:22.131Z,5.53
2022-12-06T12:01:05.167Z,4.82
2022-12-06T12:06:37.339Z,5.22
2022-12-06T12:12:16.394Z,4.97
2022-12-06T12:17:50.795Z,5.03
2022-12-06T12:23:45.043Z,5.35
2022-12-06T12:29:20.895Z,5.23
2022-12-06T12:34:51.839Z,6.43
2022-12-06T12:40:34.599Z,5.47
2022-12-06T12:46:12.130Z,4.95
2022-12-06T12:51:47.953Z,5.10
2022-12-06T12:57:19.917Z,6.70
2022-12-06T13:02:58.009Z,5.40
2022-12-06T13:08:32.113Z,7.22
2022-12-06T13:14:03.880Z,6.78
2022-12-06T13:19:39.457Z,5.63
2022-12-06T13:25:11.398Z,6.15
2022-12-06T13:30:43.348Z,5.63
2022-12-06T13:36:15.177Z,7.40
2022-12-06T13:42:15.798Z,6.30
2022-12-06T13:47:51.582Z,6.72
2022-12-06T13:53:25.543Z,5.90
2022-12-06T13:58:58.313Z,5.55
2022-12-06T14:10:12.672Z,7.10
2022-12-06T14:15:51.747Z,7.60
2022-12-06T14:21:39.371Z,6.88
2022-12-06T14:27:19.541Z,7.82
2022-12-06T14:32:52.768Z,6.20
2022-12-06T14:38:28.923Z,7.57
2022-12-06T14:43:59.948Z,6.97
2022-12-06T14:49:53.571Z,6.38
2022-12-06T14:55:25.488Z,7.93
2022-12-06T15:01:04.578Z,7.07
2022-12-06T15:06:37.126Z,7.13
2022-12-06T15:12:41.271Z,10.05
2022-12-06T15:18:27.359Z,6.77
2022-12-06T15:23:58.572Z,7.55
2022-12-06T15:29:29.432Z,7.20
2022-12-06T15:35:00.698Z,7.35
2022-12-06T15:40:32.806Z,7.18
2022-12-06T15:46:04.981Z,7.88
2022-12-06T15:57:08.610Z,6.15
2022-12-06T16:02:40.182Z,7.70
2022-12-06T16:08:11.812Z,7.97
2022-12-06T16:13:44.251Z,6.18
2022-12-06T16:19:15.518Z,6.68
2022-12-06T16:24:52.366Z,5.80
2022-12-06T16:30:35.418Z,6.88
2022-12-06T16:36:13.256Z,8.52
2022-12-06T16:41:44.531Z,6.18
2022-12-06T16:47:15.726Z,7.35
2022-12-06T16:52:47.227Z,6.45
2022-12-06T16:58:18.604Z,7.53
2022-12-06T17:03:51.462Z,6.20
2022-12-06T17:09:22.917Z,6.57
2022-12-06T17:14:54.387Z,6.20
2022-12-06T17:20:25.480Z,6.60
2022-12-06T17:25:58.029Z,6.68
2022-12-06T17:31:29.752Z,6.73
2022-12-06T17:37:01.580Z,7.22
2022-12-06T17:42:51.362Z,6.30
2022-12-06T17:48:23.363Z,6.07
2022-12-06T17:53:55.662Z,5.22
2022-12-06T17:59:30.519Z,6.65
2022-12-06T18:05:02.052Z,5.25
2022-12-06T18:10:33.694Z,5.80
2022-12-06T18:16:17.944Z,4.72
2022-12-06T18:21:49.738Z,5.38
2022-12-06T18:27:21.077Z,6.68
2022-12-06T18:32:52.673Z,5.38
2022-12-06T18:38:23.898Z,4.95
2022-12-06T18:43:57.651Z,6.03
2022-12-06T18:49:29.258Z,4.15
2022-12-06T18:55:01.035Z,3.63
2022-12-06T19:00:32.547Z,4.20
2022-12-06T19:06:22.780Z,3.47
2022-12-06T19:11:54.065Z,3.75
2022-12-06T19:17:25.287Z,3.42
2022-12-06T19:22:56.377Z,3.88
2022-12-06T19:28:29.498Z,3.75
2022-12-06T19:34:00.476Z,3.38
2022-12-06T19:39:31.493Z,3.95
2022-12-06T19:45:02.973Z,3.78
2022-12-06T19:50:34.867Z,3.25
2022-12-06T19:56:07.835Z,3.42
2022-12-06T20:01:43.887Z,2.72
2022-12-06T20:07:15.602Z,2.58
2022-12-06T20:12:47.005Z,4.95
2022-12-06T20:18:19.180Z,3.95
2022-12-06T20:23:50.830Z,2.60
2022-12-06T20:29:22.591Z,2.92
2022-12-06T20:34:54.139Z,4.15
2022-12-06T20:40:29.903Z,2.42
2022-12-06T20:46:08.711Z,3.53
2022-12-06T20:51:48.065Z,2.83
2022-12-06T20:57:22.591Z,3.28
2022-12-06T21:02:54.034Z,3.00
2022-12-06T21:08:25.631Z,2.70
2022-12-06T21:13:58.159Z,3.38
2022-12-06T21:19:29.374Z,3.72
2022-12-06T21:25:00.621Z,3.33
2022-12-06T21:30:32.718Z,4.05
2022-12-06T21:36:05.405Z,2.90
2022-12-06T21:41:36.411Z,3.15
2022-12-06T21:47:07.832Z,1.83
2022-12-06T21:52:39.097Z,2.70
2022-12-06T21:58:10.164Z,3.08
2022-12-06T22:03:42.109Z,3.22
2022-12-06T22:09:13.303Z,2.00
2022-12-06T22:14:44.861Z,2.25
2022-12-06T22:20:16.032Z,2.55
2022-12-06T22:25:47.078Z,2.85
2022-12-06T22:31:21.128Z,3.15
2022-12-06T22:36:52.293Z,2.67
2022-12-06T22:42:23.710Z,2.08
2022-12-06T22:47:55.060Z,3.28
2022-12-06T22:53:26.332Z,2.55
2022-12-06T22:58:58.625Z,1.95
2022-12-06T23:04:29.930Z,2.10
2022-12-06T23:10:01.307Z,2.13
2022-12-06T23:15:32.927Z,2.45
2022-12-06T23:21:17.464Z,2.53
2022-12-06T23:32:27.544Z,2.60
2022-12-06T23:37:58.394Z,2.60
2022-12-06T23:43:29.395Z,2.55
2022-12-06T23:49:00.809Z,1.95
2022-12-06T23:54:32.153Z,3.00
